Time;durP1;ratioP1;P1;durP2;ratioP2;P2;SDS_P1;SDS_P2;PMS_P1;PMS_P2;Temp;Humidity;BMP_temperature;BMP_pressure;BME280_temperature;BME280_humidity;BME280_pressure;Samples;Min_cycle;Max_cycle;Signal;HPM_P1;HPM_P2
2022/07/17 13:43:41;;;;;;;1.73;0.60;;;32.70;31.90;;;;;;2346209;53;22919;-74
2022/07/17 13:46:08;;;;;;;1.83;0.80;;;32.60;31.70;;;;;;2341626;53;21000;-73
2022/07/17 13:48:35;;;;;;;1.65;0.73;;;32.60;31.30;;;;;;2325592;54;21577;-72
2022/07/17 13:51:02;;;;;;;1.75;0.70;;;32.60;31.10;;;;;;2279450;54;21015;-72
2022/07/17 13:53:29;;;;;;;1.95;0.90;;;32.60;31.00;;;;;;2311827;54;21386;-72
2022/07/17 13:55:56;;;;;;;2.78;0.75;;;32.60;30.70;;;;;;2312495;55;21267;-73
2022/07/17 13:58:23;;;;;;;1.67;0.70;;;32.60;30.40;;;;;;2312221;55;20925;-73
2022/07/17 14:00:50;;;;;;;1.85;0.85;;;32.60;30.20;;;;;;2307164;54;21006;-73
2022/07/17 14:03:16;;;;;;;3.42;0.93;;;32.60;30.10;;;;;;2553465;54;20942;-72
2022/07/17 14:05:44;;;;;;;2.17;0.68;;;32.60;30.00;;;;;;2317248;55;20994;-73
2022/07/17 14:08:11;;;;;;;1.60;0.80;;;32.60;30.10;;;;;;2320060;54;21825;-73
2022/07/17 14:10:37;;;;;;;1.80;0.80;;;32.70;30.10;;;;;;2314010;54;21392;-72
2022/07/17 14:13:04;;;;;;;2.33;0.85;;;32.70;30.20;;;;;;2300649;53;21042;-73
2022/07/17 14:15:30;;;;;;;1.40;0.70;;;32.80;30.00;;;;;;2288109;54;21866;-74
2022/07/17 14:17:56;;;;;;;2.50;1.00;;;32.80;29.90;;;;;;2316268;54;20965;-74
2022/07/17 14:20:23;;;;;;;4.10;0.75;;;32.80;29.40;;;;;;2585133;53;21825;-72
2022/07/17 14:22:50;;;;;;;1.70;0.82;;;32.80;29.40;;;;;;2332736;54;20947;-72
2022/07/17 14:25:16;;;;;;;1.80;0.80;;;32.80;29.50;;;;;;2424604;53;20970;-75
2022/07/17 14:28:13;;;;;;;2.33;0.80;;;32.90;29.20;;;;;;2340491;54;20914;-74
2022/07/17 14:30:41;;;;;;;1.58;0.70;;;32.90;28.80;;;;;;2314229;55;21005;-73
2022/07/17 14:33:07;;;;;;;1.15;0.60;;;32.90;28.80;;;;;;2316970;54;21951;-72
2022/07/17 14:35:34;;;;;;;2.37;0.80;;;32.90;28.80;;;;;;2319677;54;20925;-72
2022/07/17 14:38:47;;;;;;;3.10;0.70;;;32.90;28.70;;;;;;2295683;54;21025;-75
2022/07/17 14:41:14;;;;;;;2.05;0.80;;;33.00;28.00;;;;;;2322140;54;20969;-73
2022/07/17 14:43:41;;;;;;;2.83;1.80;;;33.00;28.80;;;;;;2434125;53;20934;-72
2022/07/17 14:46:08;;;;;;;2.10;1.20;;;33.00;28.70;;;;;;2340494;54;20941;-72
2022/07/17 14:48:35;;;;;;;2.05;0.95;;;33.00;28.10;;;;;;2380368;53;21003;-73
2022/07/17 14:51:01;;;;;;;1.67;0.70;;;33.00;27.90;;;;;;2438604;53;21035;-72
2022/07/17 14:53:28;;;;;;;1.98;0.88;;;33.00;27.80;;;;;;2339783;54;20978;-72
2022/07/17 14:55:54;;;;;;;2.62;0.70;;;33.00;27.50;;;;;;2407254;53;20982;-74
2022/07/17 14:58:21;;;;;;;1.17;0.60;;;33.00;27.20;;;;;;2309296;54;20956;-73
2022/07/17 15:00:47;;;;;;;1.50;0.70;;;33.00;27.20;;;;;;2339749;54;20966;-73
2022/07/17 15:03:13;;;;;;;1.62;0.70;;;33.00;27.10;;;;;;2339275;54;20974;-72
2022/07/17 15:05:40;;;;;;;2.42;0.62;;;33.00;26.90;;;;;;2584322;53;20938;-72
2022/07/17 15:08:06;;;;;;;1.23;0.60;;;33.00;26.90;;;;;;2340039;54;21033;-74
2022/07/17 15:10:44;;;;;;;1.50;0.68;;;33.00;26.80;;;;;;2317230;53;20951;-73
2022/07/17 15:16:50;;;;;;;1.45;0.60;;;33.00;26.00;;;;;;2315536;53;20927;-73
2022/07/17 15:19:16;;;;;;;4.47;0.73;;;33.00;26.40;;;;;;2317229;55;21583;-73
2022/07/17 15:21:48;;;;;;;4.00;0.80;;;33.00;26.20;;;;;;2557474;54;21025;-72
2022/07/17 15:24:17;;;;;;;2.08;0.70;;;33.00;25.90;;;;;;2316924;54;20958;-72
2022/07/17 15:26:45;;;;;;;1.17;0.57;;;33.00;26.00;;;;;;2557504;54;20950;-72
2022/07/17 15:29:13;;;;;;;1.50;0.70;;;33.00;26.00;;;;;;2316859;55;21872;-72
2022/07/17 15:31:39;;;;;;;1.80;0.68;;;33.00;25.80;;;;;;2316890;54;21014;-71
2022/07/17 15:34:05;;;;;;;1.65;0.70;;;33.00;25.60;;;;;;2316772;55;21299;-71
2022/07/17 15:36:31;;;;;;;1.02;0.50;;;33.00;25.50;;;;;;2317520;53;21023;-74
2022/07/17 15:39:02;;;;;;;1.08;0.50;;;32.90;25.30;;;;;;2318319;54;20934;-74
2022/07/17 15:41:29;;;;;;;2.55;0.70;;;32.90;25.30;;;;;;2309863;54;20931;-73
2022/07/17 15:43:56;;;;;;;2.47;0.80;;;32.90;25.40;;;;;;2315581;54;21067;-73
2022/07/17 15:46:24;;;;;;;1.80;0.70;;;32.90;25.40;;;;;;2316364;55;20935;-73
2022/07/17 15:48:51;;;;;;;1.10;0.50;;;32.90;25.40;;;;;;2315286;54;20939;-74
2022/07/17 15:51:18;;;;;;;1.37;0.68;;;32.90;25.40;;;;;;2306451;55;21053;-74
2022/07/17 15:53:45;;;;;;;1.87;0.77;;;32.90;25.40;;;;;;2311249;54;20935;-74
2022/07/17 15:56:12;;;;;;;1.73;0.70;;;32.90;25.40;;;;;;2311918;54;21031;-72
2022/07/17 15:58:38;;;;;;;1.35;0.70;;;32.90;25.20;;;;;;2298596;54;21009;-74
2022/07/17 16:01:05;;;;;;;3.35;0.70;;;32.90;25.00;;;;;;2312022;54;20976;-73
2022/07/17 16:03:31;;;;;;;1.33;0.60;;;32.80;25.10;;;;;;2316575;54;21381;-73
2022/07/17 16:06:00;;;;;;;1.17;0.50;;;32.80;25.20;;;;;;2321418;54;21625;-73
2022/07/17 16:08:26;;;;;;;2.03;0.77;;;32.80;25.10;;;;;;2339114;54;20926;-74
2022/07/17 16:10:52;;;;;;;3.08;0.70;;;32.80;25.00;;;;;;2338905;54;20915;-76
2022/07/17 16:13:19;;;;;;;1.20;0.50;;;32.80;25.00;;;;;;2339347;54;21077;-75
2022/07/17 16:15:45;;;;;;;3.67;0.50;;;32.80;24.90;;;;;;2555031;53;21094;-74
2022/07/17 16:18:11;;;;;;;2.40;0.80;;;32.80;24.80;;;;;;2338660;54;20962;-73
2022/07/17 16:20:38;;;;;;;2.30;0.82;;;32.90;24.80;;;;;;2585104;53;20951;-73
2022/07/17 16:23:04;;;;;;;1.35;0.65;;;32.80;24.50;;;;;;2379885;53;20934;-73
2022/07/17 16:25:32;;;;;;;2.05;0.80;;;32.80;24.60;;;;;;2339409;54;20930;-73
2022/07/17 16:27:58;;;;;;;1.60;0.70;;;32.80;24.40;;;;;;2387990;53;21330;-72
2022/07/17 16:30:24;;;;;;;1.10;0.45;;;32.80;24.50;;;;;;2339675;54;21117;-73
2022/07/17 16:32:51;;;;;;;1.52;0.60;;;32.80;24.60;;;;;;2337688;54;21574;-74
2022/07/17 16:35:18;;;;;;;2.28;0.60;;;32.80;25.10;;;;;;2339356;54;20946;-72
2022/07/17 16:37:44;;;;;;;2.10;0.62;;;32.70;24.40;;;;;;2338571;54;21019;-73
2022/07/17 16:40:11;;;;;;;1.55;0.70;;;32.80;24.40;;;;;;2317021;54;21464;-73
2022/07/17 16:42:38;;;;;;;1.30;0.60;;;32.80;24.30;;;;;;2339514;54;21002;-73
2022/07/17 16:45:06;;;;;;;2.35;0.70;;;32.70;24.30;;;;;;2339231;54;20941;-74
2022/07/17 16:47:33;;;;;;;1.87;0.68;;;32.70;24.20;;;;;;2410224;54;21021;-73
2022/07/17 16:49:59;;;;;;;3.40;0.80;;;32.70;24.10;;;;;;2339918;54;21412;-74
2022/07/17 16:52:26;;;;;;;1.80;0.70;;;32.70;24.10;;;;;;2339336;54;25248;-73
2022/07/17 16:54:53;;;;;;;1.75;0.80;;;32.70;24.10;;;;;;2339372;54;21013;-72
2022/07/17 17:00:47;;;;;;;1.30;0.55;;;32.60;23.60;;;;;;2585511;53;22019;-72
2022/07/17 17:03:13;;;;;;;3.72;0.82;;;32.60;23.90;;;;;;2428007;53;21002;-74
2022/07/17 17:05:40;;;;;;;1.67;0.60;;;32.60;24.00;;;;;;2359557;53;21005;-73
2022/07/17 17:08:06;;;;;;;1.50;0.60;;;32.60;24.00;;;;;;2586057;53;21099;-73
2022/07/17 17:10:35;;;;;;;1.33;0.62;;;32.50;23.90;;;;;;2421170;53;20982;-73
2022/07/17 17:13:01;;;;;;;3.78;0.80;;;32.50;23.90;;;;;;2339586;54;20989;-72
2022/07/17 17:15:28;;;;;;;1.50;0.70;;;32.50;23.90;;;;;;2338932;54;20922;-72
2022/07/17 17:17:55;;;;;;;1.42;0.57;;;32.50;23.80;;;;;;2406666;53;20963;-71
2022/07/17 17:20:22;;;;;;;1.77;0.60;;;32.40;23.80;;;;;;2414369;53;21021;-72
2022/07/17 17:22:48;;;;;;;1.80;0.60;;;32.40;23.80;;;;;;2339420;54;21029;-72
2022/07/17 17:25:15;;;;;;;3.10;1.30;;;32.40;24.10;;;;;;2339171;53;21038;-72
2022/07/17 17:27:42;;;;;;;1.98;0.82;;;32.40;24.00;;;;;;2323427;53;20934;-73
2022/07/17 17:30:09;;;;;;;1.40;0.50;;;32.40;24.00;;;;;;2338853;54;21026;-73
2022/07/17 17:32:36;;;;;;;1.85;0.70;;;32.40;23.90;;;;;;2462311;53;21573;-72
2022/07/17 17:35:17;;;;;;;2.03;0.60;;;32.40;23.90;;;;;;2320262;54;21811;-72
2022/07/17 17:38:02;;;;;;;2.85;0.98;;;32.40;23.60;;;;;;2315108;55;20975;-72
2022/07/17 17:40:28;;;;;;;3.05;0.73;;;32.30;23.60;;;;;;2314952;53;20931;-72
2022/07/17 17:42:54;;;;;;;2.05;0.90;;;32.30;23.80;;;;;;2316451;55;21137;-72
2022/07/17 17:45:21;;;;;;;1.27;0.55;;;32.30;23.90;;;;;;2324854;55;20975;-71
2022/07/17 17:47:49;;;;;;;1.33;0.62;;;32.30;24.00;;;;;;2317641;54;20960;-72
2022/07/17 17:50:17;;;;;;;1.65;0.65;;;32.20;24.00;;;;;;2331824;55;20951;-71
2022/07/17 17:52:46;;;;;;;1.58;0.60;;;32.20;23.90;;;;;;2314093;53;20974;-71
2022/07/17 17:55:13;;;;;;;2.15;0.68;;;32.20;24.00;;;;;;2296959;54;20960;-72
2022/07/17 17:57:40;;;;;;;1.90;0.70;;;32.20;24.00;;;;;;2316390;54;20998;-71
2022/07/17 18:00:18;;;;;;;1.33;0.50;;;32.30;24.00;;;;;;2316083;54;21050;-73
2022/07/17 18:02:45;;;;;;;2.47;0.70;;;32.30;24.20;;;;;;2474436;53;20977;-74
2022/07/17 18:05:12;;;;;;;1.35;0.62;;;32.30;24.20;;;;;;2312617;54;21823;-71
2022/07/17 18:07:38;;;;;;;1.40;0.60;;;32.40;24.30;;;;;;2320782;54;21045;-71
2022/07/17 18:10:07;;;;;;;1.30;0.50;;;32.40;24.40;;;;;;2291851;54;21041;-72
2022/07/17 18:12:33;;;;;;;1.37;0.50;;;32.50;24.30;;;;;;2481924;54;20930;-72
2022/07/17 18:15:03;;;;;;;1.90;0.70;;;32.60;24.40;;;;;;2313514;54;20958;-71
2022/07/17 18:17:30;;;;;;;1.75;0.60;;;32.70;24.30;;;;;;2330416;53;21732;-71
2022/07/17 18:19:58;;;;;;;1.52;0.60;;;32.80;24.20;;;;;;2331336;53;20931;-71
2022/07/17 18:22:25;;;;;;;2.30;0.82;;;32.90;24.10;;;;;;2339343;54;20998;-70
2022/07/17 18:24:51;;;;;;;1.75;0.65;;;33.00;24.10;;;;;;2341776;54;20949;-73
2022/07/17 18:27:17;;;;;;;1.12;0.50;;;33.00;23.90;;;;;;2339187;54;20981;-72
2022/07/17 18:29:44;;;;;;;1.98;0.85;;;33.10;23.90;;;;;;2343546;54;20975;-71
2022/07/17 18:32:10;;;;;;;3.05;1.08;;;33.10;23.90;;;;;;2323318;54;20948;-71
2022/07/17 18:34:37;;;;;;;2.85;1.40;;;33.10;23.70;;;;;;2430956;53;20989;-80
2022/07/17 18:37:04;;;;;;;2.50;1.00;;;33.10;23.70;;;;;;2339347;54;21022;-71
2022/07/17 18:39:30;;;;;;;2.17;1.10;;;33.10;23.70;;;;;;2321335;54;21022;-70
2022/07/17 18:41:56;;;;;;;2.78;1.30;;;33.00;23.70;;;;;;2315951;54;21081;-70
2022/07/17 18:44:23;;;;;;;2.78;1.00;;;33.00;23.80;;;;;;2318879;54;21530;-73
2022/07/17 18:46:49;;;;;;;2.62;0.95;;;33.00;23.80;;;;;;2302637;54;21023;-73
2022/07/17 18:49:43;;;;;;;3.80;1.17;;;32.80;23.70;;;;;;2311011;54;20956;-72
2022/07/17 18:55:38;;;;;;;2.62;0.90;;;32.70;23.80;;;;;;2321192;54;21958;-73
2022/07/17 18:58:05;;;;;;;2.35;0.68;;;32.60;24.10;;;;;;2294232;54;21925;-69
2022/07/17 19:00:32;;;;;;;2.42;0.80;;;32.60;24.30;;;;;;2557363;53;20938;-72
2022/07/17 19:02:59;;;;;;;1.87;0.40;;;32.50;24.70;;;;;;2425302;53;20948;-79
2022/07/17 19:05:27;;;;;;;1.70;0.57;;;32.40;24.80;;;;;;2317338;54;20971;-72
2022/07/17 19:07:54;;;;;;;1.65;0.68;;;32.30;24.80;;;;;;2316865;54;21593;-76
2022/07/17 19:10:20;;;;;;;2.72;0.50;;;32.20;25.00;;;;;;2320011;54;20959;-73
2022/07/17 19:12:47;;;;;;;4.95;0.60;;;32.10;25.00;;;;;;2308537;54;21006;-76
2022/07/17 19:15:14;;;;;;;1.85;0.65;;;32.00;25.00;;;;;;2312527;54;21041;-71
2022/07/17 19:17:41;;;;;;;1.10;0.50;;;31.90;25.20;;;;;;2305623;54;21050;-74
2022/07/17 19:20:09;;;;;;;1.48;0.60;;;31.70;25.20;;;;;;2302148;54;20920;-72
2022/07/17 19:22:36;;;;;;;1.40;0.50;;;31.60;25.30;;;;;;2286583;53;21029;-72
2022/07/17 19:25:24;;;;;;;2.12;0.70;;;31.50;25.40;;;;;;2292216;55;21108;-72
2022/07/17 19:27:51;;;;;;;0.95;0.50;;;31.40;25.70;;;;;;2285324;55;21938;-75
2022/07/17 19:30:18;;;;;;;1.60;0.50;;;31.20;25.60;;;;;;2266349;54;20967;-73
2022/07/17 19:32:45;;;;;;;0.65;0.32;;;31.10;25.80;;;;;;2296085;55;20941;-73
2022/07/17 19:35:14;;;;;;;1.17;0.50;;;30.90;25.80;;;;;;2321230;54;20956;-73
2022/07/17 19:37:46;;;;;;;1.12;0.40;;;30.80;26.00;;;;;;2302730;54;20955;-73
2022/07/17 19:40:15;;;;;;;;;;;30.70;26.10;;;;;;2337838;54;21088;-72
2022/07/17 19:42:42;;;;;;;0.93;0.50;;;30.50;26.10;;;;;;2308979;54;20873;-72
2022/07/17 19:45:09;;;;;;;1.33;0.50;;;30.40;26.10;;;;;;2310346;54;20939;-73
2022/07/17 19:47:35;;;;;;;1.85;0.62;;;30.20;26.10;;;;;;2309754;54;20966;-72
2022/07/17 19:50:03;;;;;;;1.80;0.40;;;30.00;26.40;;;;;;2296014;54;21058;-72
2022/07/17 19:52:36;;;;;;;1.27;0.50;;;29.90;26.50;;;;;;2318783;54;22176;-73
2022/07/17 19:55:03;;;;;;;2.28;0.70;;;29.70;26.60;;;;;;2310417;53;21046;-77
2022/07/17 19:57:30;;;;;;;1.50;0.55;;;29.60;26.70;;;;;;2307695;54;20996;-72
2022/07/17 19:59:57;;;;;;;1.45;0.57;;;29.40;26.70;;;;;;2308209;54;21031;-73
2022/07/17 20:02:33;;;;;;;1.65;0.60;;;29.30;26.90;;;;;;2520576;53;21379;-77
2022/07/17 20:05:00;;;;;;;1.62;0.60;;;29.20;27.50;;;;;;2336119;54;22137;-74
2022/07/17 20:07:26;;;;;;;1.40;0.45;;;29.00;27.20;;;;;;2402507;54;20955;-75
2022/07/17 20:09:54;;;;;;;1.50;0.50;;;28.90;27.30;;;;;;2329844;54;20942;-74
2022/07/17 20:12:21;;;;;;;1.20;0.50;;;28.70;27.30;;;;;;2369725;53;20961;-75
2022/07/17 20:14:50;;;;;;;2.37;0.50;;;28.60;27.40;;;;;;2333419;54;20962;-74
2022/07/17 20:17:17;;;;;;;1.42;0.50;;;28.40;27.40;;;;;;2361412;53;21007;-75
2022/07/17 20:19:43;;;;;;;1.55;0.43;;;28.30;27.50;;;;;;2314680;54;21120;-74
2022/07/17 20:22:10;;;;;;;1.65;0.50;;;28.20;27.50;;;;;;2340497;53;22115;-75
2022/07/17 20:24:42;;;;;;;0.80;0.40;;;27.90;27.60;;;;;;2318910;54;20983;-74
2022/07/17 20:27:08;;;;;;;0.98;0.50;;;27.80;27.80;;;;;;2572210;53;20950;-75
2022/07/17 20:29:36;;;;;;;1.55;0.60;;;27.70;27.80;;;;;;2333614;54;20966;-72
2022/07/17 20:32:02;;;;;;;1.50;0.65;;;27.60;27.80;;;;;;2330805;54;21552;-71
2022/07/17 20:34:29;;;;;;;1.33;0.50;;;27.40;27.90;;;;;;2311274;53;20941;-72
2022/07/17 20:36:55;;;;;;;2.70;0.70;;;27.20;28.10;;;;;;2333859;54;22016;-71
2022/07/17 20:39:25;;;;;;;1.30;0.60;;;27.10;28.30;;;;;;2329505;54;20946;-71
2022/07/17 20:41:51;;;;;;;1.58;0.50;;;27.00;29.00;;;;;;2329943;54;21003;-72
2022/07/17 20:44:35;;;;;;;1.02;0.50;;;26.90;28.60;;;;;;2328272;54;20989;-75
2022/07/17 20:47:04;;;;;;;1.55;0.65;;;26.70;29.00;;;;;;2422955;53;21513;-75
2022/07/17 20:49:31;;;;;;;1.70;0.60;;;26.60;28.80;;;;;;2333724;54;20959;-76
2022/07/17 20:51:57;;;;;;;1.42;0.50;;;26.50;29.00;;;;;;2309972;54;21991;-74
2022/07/17 20:54:23;;;;;;;1.62;0.55;;;26.30;29.00;;;;;;2332225;54;20974;-74
2022/07/17 20:56:50;;;;;;;3.37;0.93;;;26.30;29.20;;;;;;2575171;53;20922;-73
2022/07/17 20:59:16;;;;;;;1.62;0.60;;;26.10;29.20;;;;;;2330318;54;20962;-75
2022/07/17 21:01:46;;;;;;;1.48;0.50;;;26.00;29.40;;;;;;2330488;54;20966;-75
2022/07/17 21:04:12;;;;;;;1.33;0.60;;;25.90;29.50;;;;;;2415981;53;20995;-72
2022/07/17 21:06:38;;;;;;;1.75;0.70;;;25.80;29.60;;;;;;2314388;54;21902;-73
2022/07/17 21:09:07;;;;;;;1.77;0.60;;;25.70;29.70;;;;;;2327786;54;21059;-73
2022/07/17 21:11:34;;;;;;;1.45;0.62;;;25.60;29.80;;;;;;2329034;54;21046;-75
2022/07/17 21:14:00;;;;;;;1.80;0.68;;;25.50;29.90;;;;;;2337154;54;20978;-74
2022/07/17 21:16:30;;;;;;;1.40;0.60;;;25.40;30.00;;;;;;2338754;54;20950;-75
2022/07/17 21:18:59;;;;;;;2.00;0.70;;;25.30;30.00;;;;;;2413142;53;21490;-73
2022/07/17 21:21:25;;;;;;;1.33;0.50;;;25.20;30.10;;;;;;2341999;54;20967;-75
2022/07/17 21:23:52;;;;;;;1.17;0.50;;;25.10;30.20;;;;;;2339486;57;21165;-76
2022/07/17 21:26:19;;;;;;;1.05;0.50;;;25.00;30.30;;;;;;2336527;57;21912;-76
2022/07/17 21:28:45;;;;;;;1.27;0.55;;;24.90;30.50;;;;;;2500572;53;21181;-73
2022/07/17 21:31:11;;;;;;;1.73;0.60;;;24.80;30.60;;;;;;2331499;53;20978;-73
2022/07/17 21:33:38;;;;;;;1.33;0.65;;;24.70;30.70;;;;;;2323801;53;21015;-74
2022/07/17 21:36:06;;;;;;;1.30;0.57;;;24.60;30.80;;;;;;2340039;54;20971;-73
2022/07/17 21:38:33;;;;;;;1.62;0.65;;;24.60;31.50;;;;;;2551682;53;21015;-73
2022/07/17 21:41:02;;;;;;;1.95;0.70;;;24.40;31.00;;;;;;2307860;54;20926;-73
2022/07/17 21:43:34;;;;;;;1.80;0.62;;;24.40;31.20;;;;;;2539653;53;20962;-77
2022/07/17 21:46:02;;;;;;;1.60;0.60;;;24.30;31.20;;;;;;2326987;54;20990;-72
2022/07/17 21:48:28;;;;;;;1.83;0.70;;;24.20;31.20;;;;;;2469583;53;21015;-73
2022/07/17 21:50:54;;;;;;;1.62;0.60;;;24.20;31.30;;;;;;2320364;53;20946;-73
2022/07/17 21:53:21;;;;;;;1.40;0.52;;;24.10;31.40;;;;;;2338627;53;20936;-73
2022/07/17 21:55:47;;;;;;;2.05;0.60;;;24.00;31.50;;;;;;2334637;54;20946;-76
2022/07/17 21:58:15;;;;;;;1.87;0.62;;;23.90;31.50;;;;;;2333570;53;20975;-73
2022/07/17 22:00:42;;;;;;;1.15;0.50;;;23.90;31.70;;;;;;2332875;53;21797;-74
2022/07/17 22:03:08;;;;;;;1.95;0.60;;;23.80;31.80;;;;;;2341277;54;21035;-74
2022/07/17 22:05:35;;;;;;;1.67;0.75;;;23.70;31.90;;;;;;2405957;53;20940;-74
2022/07/17 22:08:02;;;;;;;1.48;0.60;;;23.70;32.10;;;;;;2351000;53;20979;-71
2022/07/17 22:10:32;;;;;;;3.33;0.80;;;23.70;32.20;;;;;;2329695;54;21399;-73
2022/07/17 22:12:59;;;;;;;1.48;0.60;;;23.60;32.20;;;;;;2337232;54;21013;-74
2022/07/17 22:15:26;;;;;;;1.00;0.50;;;23.50;32.60;;;;;;2333441;53;21262;-73
2022/07/17 22:17:52;;;;;;;1.35;0.50;;;23.50;32.40;;;;;;2387480;53;20948;-73
2022/07/17 22:20:19;;;;;;;2.28;0.70;;;23.40;32.50;;;;;;2324188;53;20995;-74
2022/07/17 22:22:46;;;;;;;2.30;0.70;;;23.40;32.70;;;;;;2339740;54;21023;-74
2022/07/17 22:25:12;;;;;;;1.48;0.60;;;23.30;32.70;;;;;;2513746;53;20931;-72
2022/07/17 22:27:39;;;;;;;1.80;0.70;;;23.20;32.80;;;;;;2333162;53;21014;-73
2022/07/17 22:30:07;;;;;;;2.42;0.75;;;23.10;33.10;;;;;;2317507;53;20915;-75
2022/07/17 22:32:33;;;;;;;1.27;0.70;;;23.10;33.30;;;;;;2422728;53;20991;-77
2022/07/17 22:35:00;;;;;;;1.67;0.60;;;23.00;33.20;;;;;;2334430;53;20958;-73
2022/07/17 22:37:26;;;;;;;1.98;0.70;;;23.00;33.40;;;;;;2447083;53;21097;-74
2022/07/17 22:39:52;;;;;;;3.85;0.70;;;22.90;33.40;;;;;;2330740;53;21847;-74
2022/07/17 22:42:18;;;;;;;1.45;0.60;;;22.90;33.60;;;;;;2341743;54;21041;-72
2022/07/17 22:44:45;;;;;;;2.65;0.70;;;22.80;33.60;;;;;;2323248;53;21039;-73
2022/07/17 22:47:11;;;;;;;1.77;0.70;;;22.70;33.60;;;;;;2341303;54;20935;-73
2022/07/17 22:49:37;;;;;;;2.40;0.80;;;22.60;33.60;;;;;;2325187;53;21059;-73
2022/07/17 22:52:04;;;;;;;1.52;0.73;;;22.60;34.00;;;;;;2339637;53;21012;-73
2022/07/17 22:54:33;;;;;;;1.23;0.70;;;22.50;33.90;;;;;;2319051;53;21015;-74
2022/07/17 22:56:59;;;;;;;1.45;0.60;;;22.50;34.00;;;;;;2336329;54;21574;-74
2022/07/17 22:59:26;;;;;;;1.60;0.70;;;22.40;34.00;;;;;;2324641;53;20990;-74
2022/07/17 23:01:53;;;;;;;1.62;0.77;;;22.40;34.20;;;;;;2342560;54;21730;-73
2022/07/17 23:04:21;;;;;;;1.95;0.80;;;22.30;34.10;;;;;;2338349;54;21014;-72
2022/07/17 23:06:47;;;;;;;2.35;0.70;;;22.20;34.30;;;;;;2335856;53;20967;-72
2022/07/17 23:12:41;;;;;;;1.75;0.70;;;22.10;34.80;;;;;;2582396;53;21027;-74
2022/07/17 23:15:09;;;;;;;2.05;0.70;;;22.00;34.40;;;;;;2478954;53;21038;-73
2022/07/17 23:17:39;;;;;;;2.00;0.90;;;21.90;34.50;;;;;;2439574;54;21075;-74
2022/07/17 23:20:06;;;;;;;1.35;0.60;;;21.90;34.60;;;;;;2314167;54;20958;-72
2022/07/17 23:22:36;;;;;;;2.40;0.85;;;21.80;34.70;;;;;;2508901;53;20971;-74
2022/07/17 23:25:02;;;;;;;1.95;0.80;;;21.80;35.00;;;;;;2313974;54;21042;-72
2022/07/17 23:27:29;;;;;;;1.33;0.70;;;21.70;35.00;;;;;;2304047;54;21026;-73
2022/07/17 23:29:55;;;;;;;1.77;0.70;;;21.70;35.10;;;;;;2500931;52;21021;-72
2022/07/17 23:32:24;;;;;;;1.90;0.60;;;21.60;35.10;;;;;;2317210;54;22090;-73
2022/07/17 23:34:58;;;;;;;1.60;0.60;;;21.60;35.20;;;;;;2319288;54;20979;-73
2022/07/17 23:37:26;;;;;;;1.58;0.68;;;21.50;35.30;;;;;;2316768;54;21063;-73
2022/07/17 23:39:52;;;;;;;2.47;0.70;;;21.50;35.20;;;;;;2293744;54;20974;-74
2022/07/17 23:42:19;;;;;;;2.25;0.75;;;21.40;35.30;;;;;;2541471;54;21013;-73
2022/07/17 23:44:45;;;;;;;1.60;0.70;;;21.40;35.40;;;;;;2353002;53;21002;-72
2022/07/17 23:47:21;;;;;;;1.87;0.73;;;21.30;35.40;;;;;;2396240;53;20970;-73
2022/07/17 23:49:47;;;;;;;1.58;0.70;;;21.30;35.60;;;;;;2337237;54;21014;-72
2022/07/17 23:52:16;;;;;;;1.92;0.80;;;21.30;35.70;;;;;;2574891;53;20944;-73
2022/07/17 23:54:42;;;;;;;1.95;0.80;;;21.30;35.90;;;;;;2316756;54;20955;-71
2022/07/17 23:57:09;;;;;;;2.22;0.88;;;21.20;35.80;;;;;;2306528;54;20954;-73
2022/07/17 23:59:35;;;;;;;2.72;0.70;;;21.20;35.90;;;;;;2314980;54;20955;-73
